Time;durP1;ratioP1;P1;durP2;ratioP2;P2;SDS_P1;SDS_P2;PMS_P1;PMS_P2;Temp;Humidity;BMP_temperature;BMP_pressure;BME280_temperature;BME280_humidity;BME280_pressure;Samples;Min_cycle;Max_cycle;Signal;HPM_P1;HPM_P2
2022/11/21 00:00:25;;;;;;;35.88;20.50;;;;;;;2.07;100.00;100657.41;6279212;22;20400;-82
2022/11/21 00:02:52;;;;;;;36.05;20.05;;;;;;;2.07;100.00;100670.56;6281274;22;20099;-82
2022/11/21 00:05:18;;;;;;;34.35;20.05;;;;;;;2.06;100.00;100655.91;6281142;22;20082;-81
2022/11/21 00:07:45;;;;;;;37.08;20.42;;;;;;;2.07;100.00;100654.78;6281462;22;20016;-81
2022/11/21 00:10:12;;;;;;;33.72;19.02;;;;;;;2.05;100.00;100643.19;6281552;22;20087;-82
2022/11/21 00:12:38;;;;;;;40.58;19.50;;;;;;;2.03;100.00;100650.69;6280830;22;20091;-82
2022/11/21 00:15:05;;;;;;;35.05;19.40;;;;;;;2.01;100.00;100651.81;6280886;22;20084;-82
2022/11/21 00:17:32;;;;;;;34.28;19.73;;;;;;;2.01;100.00;100657.06;6280999;22;20032;-82
2022/11/21 00:19:58;;;;;;;38.03;20.67;;;;;;;2.05;100.00;100674.69;6281683;22;20083;-82
2022/11/21 00:22:25;;;;;;;31.80;20.20;;;;;;;2.07;100.00;100680.31;6281160;22;20078;-82
2022/11/21 00:24:51;;;;;;;37.38;20.67;;;;;;;2.06;100.00;100674.31;6254603;22;20449;-82
2022/11/21 00:27:19;;;;;;;31.20;18.70;;;;;;;2.04;100.00;100675.81;6281229;22;20016;-82
2022/11/21 00:29:46;;;;;;;34.15;19.17;;;;;;;2.03;100.00;100669.81;6280757;22;20304;-82
2022/11/21 00:32:12;;;;;;;36.47;21.15;;;;;;;2.01;100.00;100675.44;6281312;22;20024;-82
2022/11/21 00:34:39;;;;;;;35.92;20.10;;;;;;;2.05;100.00;100664.19;6280848;22;20051;-82
2022/11/21 00:37:05;;;;;;;37.13;19.92;;;;;;;2.05;100.00;100678.06;6281732;22;20063;-81
2022/11/21 00:39:32;;;;;;;35.88;19.77;;;;;;;2.08;100.00;100664.16;6280707;22;20020;-81
2022/11/21 00:41:58;;;;;;;34.40;19.27;;;;;;;2.10;100.00;100680.28;6281620;22;20106;-81
2022/11/21 00:44:25;;;;;;;33.22;18.70;;;;;;;2.10;100.00;100679.53;6280267;22;20453;-81
2022/11/21 00:46:52;;;;;;;35.35;19.50;;;;;;;2.10;100.00;100679.53;6281564;22;20483;-81
2022/11/21 00:49:18;;;;;;;33.00;19.42;;;;;;;2.10;100.00;100687.41;6281057;22;20175;-80
2022/11/21 00:51:44;;;;;;;36.20;20.13;;;;;;;2.08;100.00;100684.44;6281128;22;20091;-80
2022/11/21 00:54:11;;;;;;;31.40;19.05;;;;;;;2.11;100.00;100678.41;6281460;22;20126;-80
2022/11/21 00:56:37;;;;;;;36.10;19.23;;;;;;;2.13;100.00;100681.41;6280591;22;20040;-80
2022/11/21 00:59:04;;;;;;;31.90;19.42;;;;;;;2.12;100.00;100672.03;6280727;22;20016;-78
2022/11/21 01:01:30;;;;;;;37.33;18.45;;;;;;;2.11;100.00;100670.53;6280536;22;20020;-79
2022/11/21 01:03:57;;;;;;;34.92;19.00;;;;;;;2.08;100.00;100661.53;6281358;22;20103;-78
2022/11/21 01:06:24;;;;;;;31.35;18.33;;;;;;;2.08;100.00;100660.78;6281061;22;20074;-80
2022/11/21 01:08:50;;;;;;;30.15;17.77;;;;;;;2.10;100.00;100666.41;6280770;22;20050;-80
2022/11/21 01:11:19;;;;;;;34.22;18.15;;;;;;;2.07;100.00;100665.31;6280482;22;20488;-80
2022/11/21 01:13:46;;;;;;;33.10;17.48;;;;;;;2.07;100.00;100678.44;6280562;22;20017;-80
2022/11/21 01:16:16;;;;;;;30.58;19.05;;;;;;;2.06;100.00;100671.69;6281172;22;20012;-80
2022/11/21 01:18:43;;;;;;;31.55;17.88;;;;;;;2.04;100.00;100678.44;6253585;22;20020;-80
2022/11/21 01:21:14;;;;;;;33.30;18.70;;;;;;;2.01;100.00;100678.06;6281113;22;20021;-80
2022/11/21 01:23:42;;;;;;;31.52;18.02;;;;;;;1.99;100.00;100677.75;6253508;22;20012;-78
2022/11/21 01:26:11;;;;;;;33.80;17.45;;;;;;;1.99;100.00;100671.72;6280832;22;20016;-78
2022/11/21 01:28:37;;;;;;;30.80;17.73;;;;;;;1.98;100.00;100668.38;6280427;22;20016;-80
2022/11/21 01:31:10;;;;;;;29.42;17.85;;;;;;;1.99;100.00;100669.09;6280777;22;20028;-78
2022/11/21 01:33:37;;;;;;;32.42;17.65;;;;;;;2.00;100.00;100673.19;6280510;22;20088;-78
2022/11/21 01:36:28;;;;;;;35.70;19.25;;;;;;;1.99;100.00;100675.09;6281116;22;20016;-79
2022/11/21 01:38:58;;;;;;;29.65;17.70;;;;;;;1.96;100.00;100677.75;6280506;22;20016;-78
2022/11/21 01:41:34;;;;;;;31.40;17.35;;;;;;;1.93;100.00;100678.50;6280394;22;20449;-79
2022/11/21 01:44:20;;;;;;;31.83;18.25;;;;;;;1.93;100.00;100681.88;6281118;22;20087;-79
2022/11/21 01:46:48;;;;;;;31.13;19.08;;;;;;;1.95;100.00;100676.25;6279254;22;20457;-79
2022/11/21 01:49:16;;;;;;;33.80;18.45;;;;;;;1.96;100.00;100669.88;6278984;22;20135;-79
2022/11/21 01:51:55;;;;;;;32.40;18.85;;;;;;;1.97;100.00;100666.88;6279937;22;20091;-79
2022/11/21 01:54:28;;;;;;;33.92;18.95;;;;;;;1.97;100.00;100669.50;6280862;22;20501;-79
2022/11/21 01:57:02;;;;;;;31.98;19.27;;;;;;;1.98;100.00;100673.63;6279704;22;20012;-79
2022/11/21 01:59:34;;;;;;;29.98;18.67;;;;;;;1.99;100.00;100655.97;6279264;22;20012;-79
2022/11/21 02:02:04;;;;;;;33.30;18.73;;;;;;;1.99;100.00;100661.22;6281237;22;20024;-79
2022/11/21 02:04:33;;;;;;;36.08;20.10;;;;;;;1.95;100.00;100660.50;6280342;22;20023;-79
2022/11/21 02:07:02;;;;;;;33.47;18.85;;;;;;;1.94;100.00;100661.63;6281384;22;20512;-80
2022/11/21 02:09:31;;;;;;;36.33;18.35;;;;;;;1.91;100.00;100657.13;6252406;22;20048;-80
2022/11/21 02:12:05;;;;;;;35.85;19.42;;;;;;;1.92;100.00;100658.63;6281201;22;20016;-80
2022/11/21 02:14:32;;;;;;;30.30;18.58;;;;;;;1.92;100.00;100663.88;6280605;22;20946;-80
2022/11/21 02:17:02;;;;;;;31.60;18.77;;;;;;;1.90;100.00;100660.88;6281072;22;20016;-80
2022/11/21 02:19:48;;;;;;;32.65;17.90;;;;;;;1.91;100.00;100659.75;6280392;22;20095;-80
2022/11/21 02:22:17;;;;;;;36.22;18.60;;;;;;;1.90;100.00;100658.25;6281260;22;20044;-80
2022/11/21 02:24:55;;;;;;;35.90;19.33;;;;;;;1.90;100.00;100660.88;6279675;22;20026;-80
2022/11/21 02:27:22;;;;;;;34.72;18.17;;;;;;;1.93;100.00;100666.13;6253314;22;20016;-80
2022/11/21 02:29:48;;;;;;;29.42;18.17;;;;;;;1.92;100.00;100669.13;6252963;22;20075;-79
2022/11/21 02:32:23;;;;;;;34.10;19.13;;;;;;;1.94;100.00;100682.63;6281285;22;20016;-80
2022/11/21 02:34:50;;;;;;;31.05;18.42;;;;;;;1.92;100.00;100677.75;6280989;22;20012;-80
2022/11/21 02:37:17;;;;;;;33.80;18.75;;;;;;;1.92;100.00;100667.25;6280840;22;20096;-81
2022/11/21 02:39:45;;;;;;;35.83;19.13;;;;;;;1.92;100.00;100664.63;6279969;22;20016;-81
2022/11/21 02:42:20;;;;;;;37.03;17.70;;;;;;;1.86;100.00;100662.78;6280991;22;20099;-81
2022/11/21 02:44:59;;;;;;;36.08;17.05;;;;;;;1.84;100.00;100667.66;6280455;22;20020;-81
2022/11/21 02:47:27;;;;;;;35.45;16.70;;;;;;;1.85;100.00;100662.03;6280432;22;20047;-81
2022/11/21 02:50:19;;;;;;;35.20;17.00;;;;;;;1.84;100.00;100655.28;6280902;22;20024;-81
2022/11/21 02:52:45;;;;;;;32.55;16.02;;;;;;;1.83;100.00;100648.53;6280213;22;20044;-80
2022/11/21 02:55:14;;;;;;;35.13;16.95;;;;;;;1.84;100.00;100654.53;6280994;22;20023;-81
2022/11/21 02:57:40;;;;;;;31.40;16.30;;;;;;;1.83;100.00;100648.53;6280231;22;20083;-80
2022/11/21 03:00:09;;;;;;;28.52;16.50;;;;;;;1.85;100.00;100635.03;6280595;22;20063;-81
2022/11/21 03:02:36;;;;;;;31.83;16.95;;;;;;;1.83;100.00;100645.16;6280030;22;20020;-81
2022/11/21 03:05:05;;;;;;;29.55;17.25;;;;;;;1.80;100.00;100627.56;6280523;22;20445;-80
2022/11/21 03:07:31;;;;;;;28.05;16.45;;;;;;;1.77;100.00;100638.81;6280078;22;20012;-80
2022/11/21 03:09:58;;;;;;;34.03;17.90;;;;;;;1.76;100.00;100637.31;6280775;22;20018;-81
2022/11/21 03:12:24;;;;;;;34.88;17.50;;;;;;;1.72;100.00;100632.06;6227586;22;20020;-81
2022/11/21 03:14:51;;;;;;;41.80;16.65;;;;;;;1.71;100.00;100633.22;6280384;22;20048;-80
2022/11/21 03:17:17;;;;;;;31.85;16.98;;;;;;;1.70;100.00;100629.09;6280283;22;20019;-80
2022/11/21 03:19:44;;;;;;;30.40;16.77;;;;;;;1.71;100.00;100629.84;6280296;22;20097;-80
2022/11/21 03:22:12;;;;;;;40.58;16.17;;;;;;;1.69;100.00;100632.84;6252780;22;20100;-80
2022/11/21 03:24:38;;;;;;;42.35;16.98;;;;;;;1.66;100.00;100629.09;6280052;22;20828;-80
2022/11/21 03:27:05;;;;;;;34.55;15.07;;;;;;;1.68;100.00;100626.84;6280959;22;20485;-81
2022/11/21 03:29:31;;;;;;;78.43;16.70;;;;;;;1.65;100.00;100627.59;6252834;22;20012;-80
2022/11/21 03:31:58;;;;;;;51.22;16.10;;;;;;;1.61;100.00;100624.25;6280263;22;20044;-81
2022/11/21 03:34:24;;;;;;;25.50;14.20;;;;;;;1.61;100.00;100624.25;6280251;22;20070;-80
2022/11/21 03:36:51;;;;;;;69.88;15.43;;;;;;;1.61;100.00;100628.75;6279769;22;20087;-80
2022/11/21 03:39:18;;;;;;;31.88;15.52;;;;;;;1.58;100.00;100617.16;6280253;22;20087;-80
2022/11/21 03:41:44;;;;;;;60.83;15.50;;;;;;;1.61;100.00;100599.88;6280070;22;20020;-80
2022/11/21 03:44:11;;;;;;;52.80;15.02;;;;;;;1.59;100.00;100602.91;6280373;22;20020;-79
2022/11/21 03:46:40;;;;;;;43.55;15.77;;;;;;;1.57;100.00;100599.91;6279654;22;20032;-80
2022/11/21 03:49:07;;;;;;;62.65;15.40;;;;;;;1.56;100.00;100608.91;6280413;22;20087;-80
2022/11/21 03:51:33;;;;;;;47.38;14.55;;;;;;;1.51;100.00;100617.16;6279272;22;20016;-80
2022/11/21 03:54:00;;;;;;;29.23;14.77;;;;;;;1.49;100.00;100610.81;6280272;22;20016;-80
2022/11/21 03:56:27;;;;;;;96.35;16.65;;;;;;;1.48;100.00;100612.69;6279707;22;20047;-80
2022/11/21 03:58:54;;;;;;;67.32;15.98;;;;;;;1.47;100.00;100615.69;6280830;22;20039;-80
2022/11/21 04:01:21;;;;;;;89.82;16.08;;;;;;;1.48;100.00;100615.31;6279902;22;20521;-79
2022/11/21 04:03:47;;;;;;;71.38;16.45;;;;;;;1.49;100.00;100624.69;6252448;22;20103;-80
2022/11/21 04:06:16;;;;;;;115.45;17.25;;;;;;;1.50;100.00;100610.44;6279738;22;20012;-80
2022/11/21 04:08:43;;;;;;;123.50;17.05;;;;;;;1.49;100.00;100611.56;6279780;22;20012;-80
2022/11/21 04:11:10;;;;;;;152.40;17.17;;;;;;;1.47;100.00;100605.94;6280067;22;20079;-80
2022/11/21 04:13:37;;;;;;;127.97;17.48;;;;;;;1.45;100.00;100604.81;6251923;22;20026;-80
2022/11/21 04:16:04;;;;;;;115.88;16.50;;;;;;;1.41;100.00;100607.44;6280218;22;20078;-79
2022/11/21 04:18:33;;;;;;;90.40;15.55;;;;;;;1.40;100.00;100598.09;6279302;22;20027;-80
2022/11/21 04:21:06;;;;;;;38.15;14.13;;;;;;;1.39;100.00;100599.22;6279443;22;20024;-80
2022/11/21 04:23:32;;;;;;;86.45;16.13;;;;;;;1.36;100.00;100594.72;6252604;22;20016;-80
2022/11/21 04:25:59;;;;;;;59.58;15.45;;;;;;;1.37;100.00;100596.22;6280411;22;20013;-80
2022/11/21 04:28:26;;;;;;;116.78;17.15;;;;;;;1.35;100.00;100608.97;6252343;22;20090;-80
2022/11/21 04:30:52;;;;;;;110.82;17.13;;;;;;;1.34;100.00;100604.84;6279686;22;20016;-80
2022/11/21 04:33:21;;;;;;;49.20;16.50;;;;;;;1.40;100.00;100605.97;6279817;22;20381;-80
2022/11/21 04:35:47;;;;;;;117.15;16.20;;;;;;;1.41;100.00;100604.09;6279354;22;20016;-80
2022/11/21 04:38:14;;;;;;;86.10;16.58;;;;;;;1.38;100.00;100612.72;6253192;22;20019;-80
2022/11/21 04:40:43;;;;;;;60.47;16.63;;;;;;;1.40;100.00;100605.22;6279440;22;20020;-80
2022/11/21 04:43:09;;;;;;;51.78;15.98;;;;;;;1.39;100.00;100601.84;6280231;22;20012;-80
2022/11/21 04:45:36;;;;;;;64.68;15.98;;;;;;;1.39;100.00;100599.22;6252439;22;20016;-79
2022/11/21 04:48:02;;;;;;;40.50;14.82;;;;;;;1.37;100.00;100598.84;6280110;22;20997;-80
2022/11/21 04:50:29;;;;;;;44.50;16.05;;;;;;;1.37;100.00;100588.34;6280198;22;20471;-79
2022/11/21 04:52:56;;;;;;;56.75;15.00;;;;;;;1.32;100.00;100592.13;6281536;22;20453;-81
2022/11/21 04:55:26;;;;;;;77.43;16.25;;;;;;;1.34;100.00;100584.63;6254066;22;20090;-81
2022/11/21 04:57:53;;;;;;;69.55;15.40;;;;;;;1.35;100.00;100580.13;6255026;22;20099;-79
2022/11/21 05:00:20;;;;;;;48.13;15.68;;;;;;;1.33;100.00;100579.75;6281084;22;20452;-79
2022/11/21 05:02:50;;;;;;;34.33;15.65;;;;;;;1.30;100.00;100576.00;6281012;22;20012;-79
2022/11/21 05:05:16;;;;;;;57.67;14.88;;;;;;;1.33;100.00;100571.88;6280750;22;20092;-79
2022/11/21 05:07:43;;;;;;;46.33;15.18;;;;;;;1.32;100.00;100586.13;6281001;22;20013;-79
2022/11/21 05:10:09;;;;;;;61.50;15.40;;;;;;;1.34;100.00;100592.47;6281351;22;20078;-79
2022/11/21 05:15:21;;;;;;;48.47;16.17;;;;;;;1.37;100.00;100588.34;6281040;22;20441;-79
2022/11/21 05:17:50;;;;;;;67.25;15.18;;;;;;;1.36;100.00;100576.38;6280211;22;20019;-77
2022/11/21 05:20:17;;;;;;;92.85;15.55;;;;;;;1.39;100.00;100567.75;6280989;22;20050;-78
2022/11/21 05:22:49;;;;;;;84.53;16.20;;;;;;;1.39;100.00;100567.75;6281005;22;20515;-77
2022/11/21 05:25:16;;;;;;;65.50;14.93;;;;;;;1.44;100.00;100563.97;6281123;22;20095;-79
2022/11/21 05:27:42;;;;;;;82.50;16.90;;;;;;;1.43;100.00;100555.34;6280966;22;20512;-77
2022/11/21 05:30:10;;;;;;;61.20;15.40;;;;;;;1.42;100.00;100553.88;6280659;22;20051;-77
2022/11/21 05:32:37;;;;;;;77.95;15.88;;;;;;;1.41;100.00;100552.38;6280136;22;20023;-78
2022/11/21 05:35:04;;;;;;;90.53;16.05;;;;;;;1.39;100.00;100552.00;6281666;22;20481;-78
2022/11/21 05:37:30;;;;;;;112.75;16.10;;;;;;;1.38;100.00;100553.13;6281523;22;20066;-77
2022/11/21 05:39:57;;;;;;;107.03;17.17;;;;;;;1.39;100.00;100553.88;6281980;22;20044;-77
2022/11/21 05:43:44;;;;;;;69.95;15.98;;;;;;;1.39;100.00;100551.25;6281529;22;20528;-77
2022/11/21 05:45:09;;;;;;;59.38;15.73;;;;;;;1.38;100.00;100542.63;6281311;22;20022;-77
2022/11/21 05:47:36;;;;;;;80.40;16.70;;;;;;;1.41;100.00;100536.63;6281002;22;20012;-78
2022/11/21 05:50:03;;;;;;;95.95;16.75;;;;;;;1.43;100.00;100531.75;6281945;22;20402;-78
2022/11/21 05:52:29;;;;;;;39.20;16.08;;;;;;;1.46;100.00;100532.88;6281942;22;20039;-80
2022/11/21 05:54:56;;;;;;;44.67;15.32;;;;;;;1.51;100.00;100540.34;6282325;22;20067;-80
2022/11/21 05:57:22;;;;;;;78.28;17.40;;;;;;;1.51;100.00;100537.72;6281831;22;20054;-81
2022/11/21 05:59:49;;;;;;;67.68;15.93;;;;;;;1.54;100.00;100526.47;6281813;22;20027;-79
2022/11/21 06:05:00;;;;;;;97.00;16.67;;;;;;;1.54;100.00;100514.09;6282248;22;20020;-78
2022/11/21 06:07:27;;;;;;;94.60;16.63;;;;;;;1.54;100.00;100516.72;6281807;22;20014;-77
2022/11/21 06:09:53;;;;;;;79.05;15.77;;;;;;;1.56;100.00;100518.97;6281948;22;20454;-78
2022/11/21 06:12:20;;;;;;;97.45;17.35;;;;;;;1.56;100.00;100518.97;6281566;22;20343;-79
2022/11/21 06:14:51;;;;;;;84.75;17.23;;;;;;;1.57;100.00;100525.69;6282166;22;20016;-79
2022/11/21 06:17:17;;;;;;;72.85;17.17;;;;;;;1.59;100.00;100518.94;6281081;22;20020;-78
2022/11/21 06:19:44;;;;;;;58.83;16.80;;;;;;;1.60;100.00;100520.41;6282078;22;20165;-79
2022/11/21 06:22:10;;;;;;;72.70;16.35;;;;;;;1.60;100.00;100511.81;6282367;22;20012;-78
2022/11/21 06:24:37;;;;;;;80.38;17.10;;;;;;;1.61;100.00;100503.53;6281741;22;20091;-78
2022/11/21 06:27:03;;;;;;;73.80;17.33;;;;;;;1.63;100.00;100503.16;6281813;22;20059;-78
2022/11/21 06:29:29;;;;;;;77.90;15.98;;;;;;;1.64;100.00;100505.41;6281337;22;20020;-78
2022/11/21 06:31:56;;;;;;;65.38;17.13;;;;;;;1.65;100.00;100506.13;6280959;22;20012;-78
2022/11/21 06:34:25;;;;;;;39.28;15.95;;;;;;;1.67;100.00;100504.63;6281421;22;20047;-77
2022/11/21 06:36:52;;;;;;;50.72;16.42;;;;;;;1.70;100.00;100497.13;6281705;22;20016;-78
2022/11/21 06:39:18;;;;;;;42.58;17.27;;;;;;;1.70;100.00;100499.75;6281093;22;20480;-77
2022/11/21 06:41:49;;;;;;;52.15;15.75;;;;;;;1.70;100.00;100489.25;6281767;22;20484;-77
2022/11/21 06:44:17;;;;;;;43.25;15.27;;;;;;;1.71;100.00;100493.38;6281749;22;20388;-78
2022/11/21 06:46:44;;;;;;;61.63;16.63;;;;;;;1.73;100.00;100491.09;6281192;22;20016;-78
2022/11/21 06:49:16;;;;;;;46.65;14.77;;;;;;;1.74;100.00;100489.97;6281668;22;20017;-78
2022/11/21 06:51:43;;;;;;;40.85;17.10;;;;;;;1.76;100.00;100492.97;6281523;22;20016;-78
2022/11/21 06:54:11;;;;;;;50.25;15.82;;;;;;;1.76;100.00;100496.34;6281434;22;20020;-79
2022/11/21 06:56:43;;;;;;;48.17;17.23;;;;;;;1.76;100.00;100492.97;6281449;22;20091;-79
2022/11/21 06:59:09;;;;;;;40.80;15.57;;;;;;;1.78;100.00;100480.19;6281567;22;20063;-77
2022/11/21 07:01:36;;;;;;;37.30;16.02;;;;;;;1.79;100.00;100485.06;6280409;22;20012;-79
2022/11/21 07:04:02;;;;;;;42.05;15.98;;;;;;;1.82;100.00;100488.81;6281352;22;20047;-80
2022/11/21 07:06:29;;;;;;;36.65;14.93;;;;;;;1.82;100.00;100483.56;6281030;22;20016;-79
2022/11/21 07:08:55;;;;;;;38.83;15.05;;;;;;;1.84;100.00;100479.41;6281669;22;20020;-78
2022/11/21 07:11:42;;;;;;;37.22;15.68;;;;;;;1.86;100.00;100481.66;6280597;22;20453;-78
2022/11/21 07:14:09;;;;;;;37.17;16.38;;;;;;;1.89;100.00;100486.13;6280762;22;20086;-78
2022/11/21 07:16:36;;;;;;;35.53;14.95;;;;;;;1.93;100.00;100492.84;6253337;22;20517;-77
2022/11/21 07:19:02;;;;;;;35.40;15.73;;;;;;;1.94;100.00;100493.59;6281415;22;20058;-79
2022/11/21 07:21:29;;;;;;;36.42;15.27;;;;;;;1.95;100.00;100490.59;6253882;22;20012;-80
2022/11/21 07:23:55;;;;;;;32.70;14.88;;;;;;;1.97;100.00;100475.19;6281406;22;20074;-79
2022/11/21 07:26:21;;;;;;;28.25;13.10;;;;;;;1.99;100.00;100477.44;6253311;22;20044;-79
2022/11/21 07:28:48;;;;;;;32.25;14.65;;;;;;;1.99;100.00;100462.44;6280712;22;20020;-79
2022/11/21 07:31:14;;;;;;;26.27;14.60;;;;;;;1.99;100.00;100462.44;6280953;22;20047;-79
2022/11/21 07:33:45;;;;;;;30.42;14.52;;;;;;;2.01;100.00;100457.53;6280377;22;20040;-79
2022/11/21 07:36:12;;;;;;;30.95;14.30;;;;;;;2.03;100.00;100459.00;6279682;22;20095;-79
2022/11/21 07:38:40;;;;;;;30.23;14.10;;;;;;;2.04;100.00;100463.88;6253356;22;20055;-79
2022/11/21 07:41:07;;;;;;;30.10;14.27;;;;;;;2.05;100.00;100462.75;6280319;22;20023;-78
2022/11/21 07:43:34;;;;;;;31.55;15.57;;;;;;;2.08;100.00;100461.97;6252600;22;20467;-78
2022/11/21 07:46:00;;;;;;;27.80;14.23;;;;;;;2.09;100.00;100466.09;6280803;22;20429;-78
2022/11/21 07:48:27;;;;;;;29.15;14.55;;;;;;;2.11;100.00;100470.97;6280507;22;20016;-82
2022/11/21 07:50:53;;;;;;;29.20;14.13;;;;;;;2.11;100.00;100458.56;6280432;22;20016;-79
2022/11/21 07:53:20;;;;;;;31.02;14.63;;;;;;;2.13;100.00;100466.81;6253087;22;20767;-80
2022/11/21 07:55:46;;;;;;;28.55;14.80;;;;;;;2.15;100.00;100461.16;6280521;22;20016;-79
2022/11/21 07:58:15;;;;;;;26.17;14.68;;;;;;;2.18;100.00;100457.78;6279960;22;20020;-77
2022/11/21 08:00:41;;;;;;;28.23;14.77;;;;;;;2.21;100.00;100460.38;6280970;22;20092;-78
2022/11/21 08:03:10;;;;;;;25.10;13.75;;;;;;;2.22;100.00;100446.09;6280895;22;20016;-79
2022/11/21 08:05:42;;;;;;;29.38;14.98;;;;;;;2.23;100.00;100452.84;6253318;22;20050;-82
2022/11/21 08:08:10;;;;;;;27.88;14.70;;;;;;;2.23;100.00;100452.84;6253552;22;20436;-83
2022/11/21 08:10:39;;;;;;;30.40;14.63;;;;;;;2.24;100.00;100445.72;6280086;22;20012;-82
2022/11/21 08:13:05;;;;;;;27.20;15.10;;;;;;;2.25;100.00;100452.47;6280104;22;20020;-84
2022/11/21 08:15:32;;;;;;;32.97;15.02;;;;;;;2.27;100.00;100450.94;6280266;22;20083;-84
2022/11/21 08:18:06;;;;;;;26.83;14.38;;;;;;;2.30;100.00;100444.16;6280620;22;20485;-84
2022/11/21 08:20:32;;;;;;;27.50;15.13;;;;;;;2.34;100.00;100431.75;6280487;22;20020;-85
2022/11/21 08:22:59;;;;;;;30.63;15.38;;;;;;;2.37;100.00;100438.09;6280740;22;20024;-85
2022/11/21 08:25:25;;;;;;;29.15;14.63;;;;;;;2.39;100.00;100441.84;6281395;22;20054;-84
2022/11/21 08:27:55;;;;;;;29.40;14.85;;;;;;;2.43;100.00;100434.63;6228623;22;20445;-85
2022/11/21 08:30:22;;;;;;;25.67;14.18;;;;;;;2.48;100.00;100433.47;6283815;22;20012;-87
2022/11/21 08:32:48;;;;;;;24.67;13.07;;;;;;;2.51;100.00;100428.19;6283503;22;20043;-86
2022/11/21 08:35:15;;;;;;;29.98;15.32;;;;;;;2.57;100.00;100428.50;6282605;22;20083;-82
2022/11/21 08:37:41;;;;;;;30.77;13.85;;;;;;;2.60;100.00;100435.59;6282202;22;20012;-83
2022/11/21 08:40:08;;;;;;;32.50;15.07;;;;;;;2.63;100.00;100427.69;6282585;22;20066;-82
2022/11/21 08:42:36;;;;;;;31.45;15.10;;;;;;;2.64;100.00;100429.16;6280738;22;20323;-81
2022/11/21 08:45:06;;;;;;;30.38;14.88;;;;;;;2.66;100.00;100421.66;6281973;22;20016;-82
2022/11/21 08:47:33;;;;;;;34.20;14.85;;;;;;;2.70;100.00;100413.72;6281627;22;20020;-80
2022/11/21 08:49:59;;;;;;;34.00;15.70;;;;;;;2.72;100.00;100405.44;6281901;22;20817;-80
2022/11/21 08:52:34;;;;;;;34.33;15.95;;;;;;;2.75;100.00;100400.16;6281975;22;20012;-81
2022/11/21 08:55:00;;;;;;;27.35;15.38;;;;;;;2.80;100.00;100401.59;6282017;22;20012;-81
2022/11/21 08:57:27;;;;;;;29.65;15.02;;;;;;;2.82;100.00;100399.28;6280395;22;20016;-82
2022/11/21 08:59:53;;;;;;;36.10;14.70;;;;;;;2.86;100.00;100392.84;6281880;22;20016;-82
2022/11/21 09:02:19;;;;;;;37.90;16.02;;;;;;;2.91;100.00;100397.69;6281581;22;20043;-82
2022/11/21 09:04:46;;;;;;;40.33;16.52;;;;;;;2.95;100.00;100387.13;6281620;22;20543;-82
2022/11/21 09:07:12;;;;;;;35.67;15.30;;;;;;;3.00;100.00;100379.53;6255038;22;20017;-82
2022/11/21 09:09:39;;;;;;;39.20;15.95;;;;;;;3.06;100.00;100381.72;6281556;22;20016;-82
2022/11/21 09:12:05;;;;;;;51.92;16.27;;;;;;;3.10;100.00;100388.44;6281172;22;20395;-80
2022/11/21 09:20:02;;;;;;;37.60;16.83;;;;;;;3.27;100.00;100366.38;6281670;22;20020;-82
2022/11/21 09:22:29;;;;;;;33.55;16.27;;;;;;;3.32;100.00;100362.56;6281331;22;20016;-81
2022/11/21 09:24:55;;;;;;;36.38;16.58;;;;;;;3.37;100.00;100358.72;6280838;22;20051;-81
2022/11/21 09:27:22;;;;;;;39.15;17.73;;;;;;;3.46;100.00;100365.00;6281038;22;20020;-83
2022/11/21 09:29:48;;;;;;;35.97;16.55;;;;;;;3.58;100.00;100367.06;6254740;22;20016;-83
2022/11/21 09:32:19;;;;;;;34.95;17.13;;;;;;;3.62;100.00;100359.81;6281302;22;20012;-81
2022/11/21 09:34:46;;;;;;;49.42;18.60;;;;;;;3.68;100.00;100352.97;6281386;22;20016;-82
2022/11/21 09:37:12;;;;;;;34.00;17.65;;;;;;;3.70;100.00;100347.31;6281705;22;20083;-80
2022/11/21 09:39:39;;;;;;;39.78;17.98;;;;;;;3.74;100.00;100345.34;6280641;22;20043;-81
2022/11/21 09:42:14;;;;;;;52.83;18.95;;;;;;;3.78;100.00;100350.56;6281491;22;20495;-80
2022/11/21 09:45:05;;;;;;;42.17;17.45;;;;;;;3.80;100.00;100348.28;6281196;22;20048;-79
2022/11/21 09:47:39;;;;;;;34.35;17.25;;;;;;;3.84;100.00;100336.53;6281189;22;20016;-81
2022/11/21 09:50:16;;;;;;;43.22;18.02;;;;;;;3.91;100.00;100330.41;6281314;22;20016;-82
2022/11/21 09:52:57;;;;;;;43.53;18.00;;;;;;;3.93;100.00;100331.50;6254497;22;20016;-82
2022/11/21 09:55:30;;;;;;;46.03;18.63;;;;;;;3.93;100.00;100328.88;6280485;22;20122;-82
2022/11/21 09:58:01;;;;;;;40.55;19.30;;;;;;;3.97;100.00;100328.81;6254136;22;20051;-79
2022/11/21 10:00:27;;;;;;;53.78;19.08;;;;;;;3.98;100.00;100323.13;6253980;22;20112;-79
2022/11/21 10:02:54;;;;;;;49.38;18.55;;;;;;;3.99;100.00;100324.63;6281535;22;20097;-79
2022/11/21 10:05:48;;;;;;;39.15;16.85;;;;;;;4.02;100.00;100315.13;6253673;22;20016;-81
2022/11/21 10:08:46;;;;;;;41.33;17.27;;;;;;;4.04;100.00;100312.84;6254052;22;20520;-79
2022/11/21 10:12:35;;;;;;;43.90;16.58;;;;;;;4.06;100.00;100313.19;6254258;22;20015;-80
2022/11/21 10:14:47;;;;;;;36.05;16.88;;;;;;;4.12;100.00;100319.47;6281066;22;20467;-81
2022/11/21 10:17:28;;;;;;;36.60;17.90;;;;;;;4.22;100.00;100321.16;6254272;22;20020;-82
2022/11/21 10:20:03;;;;;;;37.47;18.13;;;;;;;4.23;100.00;100319.28;6281649;22;20078;-81
2022/11/21 10:22:59;;;;;;;43.22;17.58;;;;;;;4.24;100.00;100320.78;6280560;22;20066;-80
2022/11/21 10:25:31;;;;;;;34.80;17.27;;;;;;;4.26;100.00;100318.47;6186240;23;20032;-77
2022/11/21 10:28:03;;;;;;;33.33;16.40;;;;;;;4.30;100.00;100312.00;6187236;23;20013;-79
2022/11/21 10:30:30;;;;;;;43.35;17.42;;;;;;;4.33;100.00;100308.53;6186093;23;20037;-79
2022/11/21 10:33:10;;;;;;;34.70;16.58;;;;;;;4.38;100.00;100303.94;6186956;23;20021;-80
2022/11/21 10:35:50;;;;;;;33.45;16.67;;;;;;;4.43;100.00;100298.16;6186464;23;20482;-80
2022/11/21 10:38:25;;;;;;;33.83;16.75;;;;;;;4.48;100.00;100289.78;6186150;23;20391;-80
2022/11/21 10:41:17;;;;;;;45.95;17.10;;;;;;;4.51;100.00;100283.69;6187378;23;20026;-80
2022/11/21 10:46:53;;;;;;;38.38;16.45;;;;;;;4.65;100.00;100272.88;6186009;23;20025;-77
2022/11/21 10:49:20;;;;;;;29.38;16.38;;;;;;;4.73;100.00;100270.81;6186389;23;20018;-84
2022/11/21 10:52:04;;;;;;;30.63;15.88;;;;;;;4.80;100.00;100270.69;6186483;23;20054;-82
2022/11/21 10:54:33;;;;;;;33.28;16.38;;;;;;;4.85;100.00;100262.25;6186790;23;20308;-80
2022/11/21 10:57:04;;;;;;;28.70;15.85;;;;;;;4.92;100.00;100260.19;6187092;23;20022;-82
2022/11/21 10:59:30;;;;;;;36.83;17.52;;;;;;;4.94;100.00;100252.63;6186831;23;20053;-87
2022/11/21 11:02:01;;;;;;;31.20;17.42;;;;;;;4.99;100.00;100259.28;6190577;22;20021;-79
2022/11/21 11:04:29;;;;;;;34.60;17.88;;;;;;;5.04;100.00;100253.53;6281114;22;20039;-81
2022/11/21 11:07:26;;;;;;;37.65;18.00;;;;;;;5.15;100.00;100253.28;6279641;22;20455;-79
2022/11/21 11:10:23;;;;;;;39.72;18.58;;;;;;;5.21;100.00;100248.97;6279513;22;20074;-80
2022/11/21 11:16:04;;;;;;;29.17;17.30;;;;;;;5.28;100.00;100236.34;6279289;22;20468;-80
2022/11/21 11:18:34;;;;;;;28.95;17.30;;;;;;;5.36;100.00;100229.75;6279126;22;20095;-79
2022/11/21 11:21:19;;;;;;;36.72;18.35;;;;;;;5.47;100.00;100223.47;6279038;22;20036;-90
2022/11/21 11:23:50;;;;;;;37.00;19.30;;;;;;;5.56;100.00;100221.72;6252681;22;20126;-77
2022/11/21 11:26:23;;;;;;;34.03;19.05;;;;;;;5.66;100.00;100225.22;6279011;22;20030;-81
2022/11/21 11:28:50;;;;;;;42.80;18.80;;;;;;;5.70;100.00;100213.38;6253281;22;20016;-83
2022/11/21 11:31:16;;;;;;;32.28;17.65;;;;;;;5.70;100.00;100210.00;6278143;22;20023;-80
2022/11/21 11:33:46;;;;;;;30.50;18.52;;;;;;;5.73;100.00;100205.78;6252194;22;20054;-80
2022/11/21 11:36:43;;;;;;;33.42;18.35;;;;;;;5.76;100.00;100207.59;6278628;22;20467;-79